Mesopotamia, Ohio
Current Conditions -  °F | °C
As of 1:23 PM on Sunday 23 Nov 2014 (Local Time) from KYNG Reporting Station
Overcast Overcast  
Wind Chill: 56°   Ceiling: 5000
Heat Index: 56°   Visibility: 10mi
Dew Point: 41°   Wind: 9mph
Humidity: 57%   Direction: 120°ESE
Pressure: 29.93"   Gusts: NA
Location:  41.46°N, 80.96°W
Report Text: KYNG 231823Z 12008KT 10SM SCT032 BKN050 OVC220 13/05 A2993 RMK AO2 T01330050
Loading
Personal Weather Stations






























Interactive Weather Map New forecast layout! Learn more

10-Day Weather Forecast

Advertisements
Track Severe Weather on mobile